Weather at Citizens Bank Headquarters Heliport

Public forecast

Using degrees Fahrenheit for public forecast. Weather courtesy of forecast.io.

Closest aviation weather report (METAR) to Citizens Bank Headquarters Heliport

Closest report is Tipton Airport, 6.4 nm (11.9 km) E. Retrieved 2020/11/30 19:35 UTC (12 minutes ago):

KFME 301935Z AUTO 20003KT 10SM SCT015 BKN021 OVC026 16/16 A2936 RMK AO1

Closest aviation forecast (TAF) to Citizens Bank Headquarters Heliport

Closest forecast is Baltimore/Washington International Thurgood Marshall Airport, 11.9 nm (22.1 km) ENE. Retrieved 2020/11/30 18:39 UTC (1 hour ago):

TAF KBWI 301736Z 3018/0124 17007G16KT 5SM -SHRA BR OVC025 FM302000 21012G20KT P6SM BKN025 FM302200 23012KT P6SM BKN035 FM010200 26009KT P6SM SCT040 FM011000 26006KT P6SM SCT035 FM011500 26012G19KT P6SM BKN035